Weather observations for the past three days for
Las Cruces, Las Cruces International Airport
Imperial (Metric)
Date Time (mdt) Wind (mph) Vis. (mi.) Weather Sky Cond. Temperature (ºF) Relative Humidity Wind Chill (°F) Heat Index (°F) Pressure Precipitation (in)
Air Dwpt 6 hour altimeter (in) sea level (mb) 1 hr 3 hr 6 hr
Max. Min.
08 07:15 NW 5 10.00 Fair CLR 56.7 21.7 26% 30 0.0
08 06:55 NW 8 10.00 Fair CLR 50.9 22.1 32% 29.99 0.0
08 06:35 NW 6 10.00 Fair CLR 46.6 22.6 39% 44 29.98 0.0
08 06:15 NW 5 10.00 Fair CLR 47.7 22.5 37% 46 29.98 0.0
08 05:55 W 8 10.00 Fair CLR 49.6 21.9 58.6 49.6 34% 47 29.97 0.0
08 05:35 W 8 10.00 Fair CLR 53.6 21.2 28% 29.97 0.0
08 05:15 W 7 10.00 Fair CLR 51.3 21.7 31% 29.98 0.0
08 04:55 NW 7 10.00 Fair CLR 52.2 22.1 31% 29.98 0.0
08 04:35 Calm 10.00 Fair CLR 54.3 21.9 28% 29.98 0.0
08 04:15 W 3 10.00 Fair CLR 52.7 22.8 31% 29.97 0.0
08 03:55 W 6 10.00 Fair CLR 51.8 23 32% 29.97 0.0
08 03:35 W 6 10.00 Fair CLR 52.9 23.2 31% 29.98 0.0
08 03:15 W 5 10.00 Fair CLR 53.6 22.8 30% 29.98 0.0
08 02:55 W 6 10.00 Fair CLR 55.9 22.6 27% 29.99 0.0
08 02:35 W 8 10.00 Fair CLR 54.7 23 29% 29.99 0.0
08 02:15 SW 6 10.00 Fair CLR 54.7 23 29% 29.99 0.0
08 01:55 S 6 10.00 Fair CLR 57.9 23.7 27% 30 0.0
08 01:35 SE 5 10.00 Fair CLR 53.4 23.2 31% 30 0.0
08 01:15 Calm 10.00 Fair CLR 56.1 22.3 27% 30 0.0
08 00:55 NW 3 10.00 Fair CLR 53.4 23.7 32% 30 0.0
08 00:35 NW 3 10.00 Fair CLR 55.4 23 28% 30 0.0
08 00:15 NW 6 10.00 Fair CLR 54.3 23.5 30% 30 0.0
07 23:55 NW 6 10.00 Fair CLR 55.8 23 78.4 55.4 28% 29.99 0.0
07 23:35 NW 6 10.00 Fair CLR 55.8 23 28% 29.99 0.0
07 23:15 Calm 10.00 Fair CLR 55.6 23.7 29% 29.99 0.0
07 22:55 Calm 10.00 Fair CLR 57 23.7 28% 30 0.0
07 22:35 SW 3 10.00 Fair CLR 60.1 23 24% 30 0.0
07 22:15 S 3 10.00 Fair CLR 63 21.9 21% 30 0.0
07 21:55 S 5 10.00 Fair CLR 67.1 20.3 17% 29.99 0.0
07 21:35 S 3 10.00 Fair CLR 62.6 21.9 21% 29.99 0.0
07 21:15 Calm 10.00 Fair CLR 62.4 22.6 22% 29.98 0.0
07 20:55 Calm 10.00 Fair CLR 61.3 22.8 23% 29.98 0.0
07 20:35 Calm 10.00 Fair CLR 66.2 20.5 17% 29.97 0.0
07 20:15 S 5 10.00 Fair CLR 69.8 19 14% 29.96 0.0
07 19:55 Calm 10.00 Fair CLR 72.5 17.8 12% 29.96 0.0
07 19:35 NE 5 10.00 Fair CLR 74.1 19 12% 29.96 0.0
07 19:15 E 7 10.00 Fair CLR 75.4 18.9 12% 75 29.95 0.0
07 18:55 SE 3 10.00 Fair CLR 76.3 18.5 11% 76 29.96 0.0
07 18:35 E 5 10.00 Fair CLR 77.2 18 11% 76 29.96 0.0
07 18:15 E 5 10.00 Fair CLR 77.4 16.3 10% 76 29.96 0.0
07 17:55 SW 7 10.00 Fair CLR 78.6 16.9 79.7 70.3 10% 77 29.96 0.0
07 17:35 SW 9 10.00 Fair CLR 78.6 16.7 10% 77 29.97 0.0
07 17:15 NE 7 10.00 Fair CLR 79.3 18.5 10% 78 29.97 0.0
07 16:55 SE 8 G 16 10.00 Fair CLR 79 18.3 10% 77 29.98 0.0
07 16:35 Calm 10.00 Fair CLR 76.8 18 11% 76 29.98 0.0
07 16:15 Calm 10.00 Fair CLR 78.3 19 11% 77 29.99 0.0
07 15:55 SW 9 10.00 Fair CLR 79.3 19.2 10% 78 29.99 0.0
07 15:35 Calm 10.00 Fair CLR 77.5 20.1 12% 76 29.99 0.0
07 15:15 SW 6 10.00 Fair CLR 77.5 21.4 12% 77 30 0.0
07 14:35 E 5 10.00 Fair CLR 76.1 23.2 14% 76 30.01 0.0
07 14:15 N 5 10.00 Fair CLR 75.9 23.4 14% 76 30.03 0.0
07 13:55 W 6 10.00 Fair CLR 74.7 22.1 14% 30.03 0.0
07 13:35 SE 8 10.00 Fair CLR 77.5 21.6 12% 77 30.04 0.0
07 13:15 NW 6 10.00 Fair CLR 75 23.9 15% 75 30.05 0.0
07 12:55 E 6 10.00 Fair CLR 75.2 26.1 16% 76 30.06 0.0
07 12:35 S 5 10.00 Fair CLR 73.6 27.5 18% 30.07 0.0
07 12:15 N 5 10.00 Fair CLR 72.7 28.4 19% 30.08 0.0
07 11:55 NW 3 10.00 Fair CLR 70.3 28.8 71.6 53.1 21% 30.08 0.0
07 11:35 E 3 10.00 Fair CLR 70.7 29.7 22% 30.09 0.0
07 11:15 Calm 10.00 Fair CLR 68.7 29.5 23% 30.09 0.0
07 10:55 E 6 10.00 Fair CLR 67.6 29.3 24% 30.1 0.0
07 10:35 E 8 10.00 Fair CLR 68 30.4 25% 30.11 0.0
07 10:15 NE 7 G 16 10.00 Fair CLR 67.1 29.8 25% 30.11 0.0
07 09:55 E 8 10.00 Fair CLR 64.9 31.1 28% 30.12 0.0
07 09:35 E 6 10.00 Fair CLR 63 31.3 30% 30.12 0.0
07 09:15 Calm 10.00 Fair CLR 60.4 30.7 33% 30.12 0.0
07 08:55 SE 3 10.00 Fair CLR 59.4 30 33% 30.12 0.0
07 08:35 Calm 10.00 Fair CLR 57.2 29.3 35% 30.12 0.0
07 08:15 SE 5 10.00 Fair CLR 56.5 28.6 34% 30.12 0.0
07 07:55 Calm 10.00 Fair CLR 57 29.8 36% 30.12 0.0
07 07:35 N 7 10.00 Fair CLR 57.2 30.4 36% 30.11 0.0
07 07:15 N 5 10.00 Fair CLR 55.9 29.7 37% 30.1 0.0
07 06:55 N 6 10.00 Fair CLR 53.6 29.3 39% 30.1 0.0
07 06:35 N 9 10.00 Fair CLR 53.6 29.3 39% 30.09 0.0
07 06:15 NW 9 10.00 Fair CLR 53.8 29.3 39% 30.09 0.0
07 05:55 N 10 10.00 Fair CLR 53.2 29.1 59.9 50.9 40% 30.08 0.0
07 05:35 N 10 10.00 Fair CLR 53.1 28.9 40% 30.08 0.0
07 05:15 NW 7 10.00 Fair CLR 52.5 28.4 40% 30.08 0.0
07 04:55 N 7 10.00 Fair CLR 53.2 27.9 38% 30.08 0.0
07 04:35 N 8 10.00 Fair CLR 55.2 28.4 36% 30.08 0.0
07 04:15 N 5 10.00 Fair CLR 54.1 24.6 32% 30.08 0.0
07 03:55 N 8 10.00 Fair CLR 55.9 25 30% 30.07 0.0
07 03:35 N 10 10.00 Fair CLR 57.2 24.8 29% 30.07 0.0
07 03:15 N 7 10.00 Fair CLR 57.4 21.2 25% 30.07 0.0
07 02:55 Calm 10.00 Fair CLR 51.6 16.5 25% 30.07 0.0
07 02:35 NW 6 10.00 Fair CLR 53.8 15.8 22% 30.06 0.0
07 02:15 NW 8 10.00 Fair CLR 54.3 14.9 21% 30.07 0.0
07 01:55 NW 7 10.00 Fair CLR 56.5 14.2 19% 30.07 0.0
07 01:35 NW 8 10.00 Fair CLR 58.6 12.9 16% 30.07 0.0
07 01:15 NW 10 10.00 Fair CLR 58.3 12.2 16% 30.07 0.0
07 00:55 NW 13 10.00 Fair CLR 59 12.2 16% 30.07 0.0
07 00:35 NW 9 10.00 Fair CLR 58.1 12.6 16% 30.07 0.0
07 00:15 NW 10 10.00 Fair CLR 59.2 12.2 16% 30.07 0.0
06 23:55 NW 10 10.00 Fair CLR 59.9 12.7 73.4 59.9 15% 30.07 0.0
06 23:35 W 13 G 16 10.00 Fair CLR 61.5 12.4 14% 30.06 0.0
06 23:15 W 13 10.00 Fair CLR 62.6 9.5 12% 30.06 0.0
06 22:55 W 12 10.00 Fair CLR 61.2 8.6 12% 30.06 0.0
06 22:35 W 16 G 21 10.00 Fair CLR 62.8 7.7 11% 30.05 0.0
06 22:15 W 8 10.00 Fair CLR 60.6 8.6 13% 30.05 0.0
06 21:55 W 12 10.00 Fair CLR 62.6 7.5 11% 30.05 0.0
06 21:35 W 9 10.00 Fair CLR 62.2 7.5 11% 30.04 0.0
06 21:15 W 10 10.00 Fair CLR 63.5 6.6 10% 30.03 0.0
06 20:55 W 12 10.00 Fair CLR 64 6.8 10% 30.02 0.0
06 20:35 W 10 10.00 Fair CLR 65.5 4.8 9% 30.02 0.0
06 20:15 W 13 10.00 Fair CLR 66.6 4.6 8% 30.01 0.0
06 19:55 W 13 10.00 Fair CLR 68 3.6 8% 30.01 0.0
06 19:35 W 15 G 22 10.00 Fair CLR 70 1.2 6% 30 0.0
06 19:15 W 17 G 25 10.00 Fair CLR 71.1 3.9 7% 29.99 0.0
06 18:55 W 21 G 31 10.00 Fair and Breezy CLR 72 3.9 7% 29.99 0.0
06 18:35 W 21 G 29 10.00 Fair and Breezy CLR 72.7 7.2 8% 29.99 0.0
06 18:15 W 20 G 29 10.00 Fair CLR 73 5.4 7% 29.98 0.0
06 17:55 W 23 G 31 10.00 Fair and Breezy CLR 73.6 5.4 74.7 66.7 7% 29.98 0.0
06 17:35 W 23 G 33 10.00 Fair and Breezy CLR 73.4 5 7% 29.98 0.0
06 17:15 W 22 G 33 10.00 Fair and Breezy CLR 74.1 7.5 7% 29.98 0.0
06 16:55 W 18 G 31 10.00 Fair CLR 74.1 6.3 7% 29.98 0.0
06 16:35 W 16 G 26 10.00 Fair CLR 73.9 10.2 8% 29.99 0.0
06 16:15 W 16 G 28 10.00 Fair CLR 74.1 8.8 8% 29.99 0.0
06 15:55 W 17 G 26 10.00 Fair CLR 73.6 13.5 10% 29.99 0.0
06 15:35 SW 12 10.00 Fair CLR 73.2 13.5 10% 29.99 0.0
06 15:15 W 22 G 25 10.00 Fair and Breezy CLR 73.4 16.9 12% 30 0.0
06 14:55 SW 17 G 28 10.00 Fair CLR 72.9 13.8 10% 30 0.0
06 14:35 W 13 G 23 10.00 Fair CLR 72.1 15.6 11% 30.01 0.0
06 14:15 W 15 G 22 10.00 Fair CLR 71.6 17.1 12% 30.01 0.0
06 13:55 SW 20 G 23 10.00 Fair CLR 70 21.4 16% 30.02 0.0
06 13:35 SW 13 G 24 10.00 Fair CLR 70.2 21.9 16% 30.02 0.0
06 13:15 W 13 G 20 10.00 Fair CLR 69.6 24.8 18% 30.03 0.0
06 12:55 W 15 G 23 10.00 Fair CLR 69.3 24.4 18% 30.03 0.0
06 12:35 W 12 G 18 10.00 Fair CLR 67.8 26.1 21% 30.04 0.0
06 12:15 W 12 G 25 10.00 Fair CLR 67.3 25.5 21% 30.04 0.0
06 11:55 W 17 G 31 10.00 Fair CLR 66.4 26.1 66.6 43 22% 30.05 0.0
06 11:35 SW 17 10.00 Fair CLR 65.7 26.4 23% 30.05 0.0
06 11:15 W 20 G 24 10.00 Fair CLR 64.6 26.1 23% 30.06 0.0
06 10:55 SW 10 G 25 10.00 Fair CLR 63.7 27.7 26% 30.06 0.0
06 10:35 W 14 G 24 10.00 Fair CLR 63.5 28.6 27% 30.06 0.0
06 10:15 W 18 G 22 10.00 Fair CLR 63.3 28.8 27% 30.06 0.0
06 09:55 W 14 G 20 10.00 Fair CLR 62.2 29.7 29% 30.06 0.0
06 09:35 W 13 G 20 10.00 Fair CLR 61 30.4 32% 30.06 0.0
06 09:15 W 10 10.00 Fair CLR 60.6 30.4 32% 30.05 0.0
06 08:55 W 12 10.00 Fair CLR 59.7 30.9 34% 30.05 0.0
06 08:35 W 8 10.00 Fair CLR 58.5 31.8 37% 30.05 0.0
06 08:15 W 3 10.00 Fair CLR 57.6 32 38% 30.05 0.0
06 07:55 Calm 10.00 Fair CLR 55.2 33.1 43% 30.04 0.0
06 07:35 W 3 10.00 Fair CLR 52.5 32.9 47% 30.04 0.0
06 07:15 W 3 10.00 Fair CLR 49.6 32.9 53% 30.04 0.0
06 06:55 W 5 10.00 Fair CLR 45.5 32 59% 44 30.03 0.0
06 06:35 SW 5 10.00 Fair CLR 43.2 31.8 64% 41 30.03 0.0
06 06:15 W 7 10.00 Fair CLR 43.7 32 64% 40 30.02 0.0
06 05:55 W 6 10.00 Fair CLR 44.6 32 58.5 44.4 61% 42 30.01 0.0
06 05:35 W 6 10.00 Fair CLR 45.9 32 59% 43 30.01 0.0
06 05:15 W 8 10.00 Fair CLR 47.3 32 55% 44 30 0.0
06 04:55 W 7 10.00 Fair CLR 47.1 32 56% 44 30 0.0
06 04:35 W 5 10.00 Fair CLR 45.1 31.8 60% 43 30 0.0
06 04:15 Calm 10.00 Fair CLR 46.2 31.8 57% 29.99 0.0
06 03:55 W 6 10.00 Fair CLR 48.9 31.8 52% 47 29.99 0.0
06 03:35 W 6 10.00 Fair CLR 49.1 32 52% 47 29.98 0.0
06 03:15 W 5 10.00 Fair CLR 48.2 32 54% 47 29.98 0.0
06 02:55 W 7 10.00 Fair CLR 49.5 32 51% 47 29.98 0.0
06 02:35 W 9 10.00 Fair CLR 51.3 32 48% 29.98 0.0
06 02:15 W 8 10.00 Fair CLR 53.1 31.8 44% 29.98 0.0
06 01:55 W 9 10.00 Fair CLR 55 31.8 41% 29.98 0.0
06 01:35 W 12 10.00 Fair CLR 55.8 31.5 40% 29.97 0.0
06 01:15 W 12 10.00 Fair CLR 56.3 30.9 38% 29.96 0.0
06 00:55 W 13 10.00 Fair CLR 56.8 29.3 35% 29.96 0.0
06 00:15 W 12 10.00 Fair CLR 57.6 27.3 31% 29.95 0.0
05 23:55 W 12 10.00 Fair CLR 58.1 26.6 72.5 58.1 30% 29.95 0.0
05 23:35 SW 10 10.00 Fair CLR 59.5 26.4 28% 29.94 0.0
05 23:15 SW 9 10.00 Fair CLR 59.5 26.2 28% 29.94 0.0
05 22:55 SW 9 10.00 Fair CLR 61.9 24.8 24% 29.94 0.0
05 22:35 SW 10 10.00 Fair CLR 62.8 23.7 22% 29.94 0.0
05 22:15 SW 9 10.00 Fair CLR 63.1 23 22% 29.93 0.0
05 21:55 SW 10 G 16 10.00 Fair CLR 65.5 22.1 19% 29.92 0.0
05 21:35 SW 14 10.00 Fair CLR 66.2 21 18% 29.9 0.0
05 21:15 SW 14 G 17 10.00 Fair CLR 66.4 21.2 18% 29.9 0.0
05 20:55 SW 10 10.00 Fair CLR 66.6 22.5 19% 29.89 0.0
05 20:35 SW 10 10.00 Fair CLR 67.1 23.5 19% 29.88 0.0
05 20:15 W 10 10.00 Fair CLR 68 23.2 18% 29.88 0.0
05 19:55 W 12 10.00 Fair CLR 68.9 23.7 18% 29.87 0.0
05 19:35 W 16 G 23 10.00 Fair CLR 70.3 23.9 17% 29.87 0.0
05 19:15 W 16 G 20 10.00 Fair CLR 70.7 25.2 18% 29.87 0.0
05 18:55 W 13 10.00 Fair CLR 70.7 31.3 23% 29.87 0.0
05 18:35 W 15 10.00 Partly Cloudy SCT100 71.2 32.9 24% 29.87 0.0
05 18:15 W 15 G 21 10.00 Partly Cloudy SCT100 71.6 32.5 24% 29.87 0.0
05 17:55 SW 13 G 23 10.00 Fair CLR 72.5 28.9 74.3 62.6 20% 29.86 0.0
05 17:35 W 14 G 17 10.00 Partly Cloudy SCT085 SCT110 71.6 31.8 23% 29.86 0.0
05 17:15 SW 12 G 23 10.00 Partly Cloudy SCT090 SCT110 72 32.5 23% 29.87 0.0
05 16:55 W 18 G 23 10.00 Partly Cloudy SCT090 72.9 32.4 23% 29.88 0.0
05 16:35 W 20 G 26 10.00 Partly Cloudy SCT080 73 33.4 23% 29.88 0.0
05 16:15 W 16 G 26 10.00 Mostly Cloudy BKN090 73 32.5 23% 29.89 0.0
05 15:55 W 21 G 30 10.00 Mostly Cloudy and Breezy BKN090 72.5 32.9 23% 29.9 0.0
05 15:35 W 23 G 32 10.00 Partly Cloudy and Breezy SCT080 SCT090 72.1 33.1 24% 29.91 0.0
05 15:15 W 20 G 26 10.00 Partly Cloudy SCT060 SCT090 72.7 34.2 24% 29.92 0.0
05 14:55 W 13 G 28 10.00 Mostly Cloudy SCT060 BKN090 70.5 37.6 30% 29.93 0.0
05 14:35 SW 20 G 28 10.00 Partly Cloudy SCT060 70.5 38.5 31% 29.95 0.0
05 14:15 SW 16 G 29 10.00 Partly Cloudy SCT070 68.4 37.9 33% 29.95 0.0
05 13:55 W 23 G 29 10.00 Mostly Cloudy and Breezy SCT070 BKN080 BKN120 68 38.1 34% 29.96 0.0
05 13:35 SW 17 10.00 Mostly Cloudy BKN075 BKN090 BKN120 67.5 38.3 34% 29.96 0.0
05 13:15 SW 22 G 37 10.00 Overcast and Breezy SCT026 BKN070 OVC085 65.7 38.8 37% 29.97 0.0
05 12:55 W 31 G 43 10.00 Overcast and Windy SCT035 BKN070 OVC085 63.5 41.5 45% 29.98 0.0
05 12:35 W 36 G 45 10.00 Overcast and Windy SCT050 BKN060 OVC070 64.8 36.1 35% 29.99 0.0
05 12:15 W 25 G 37 10.00 Overcast and Breezy SCT060 OVC070 65.7 36.5 34% 29.99 0.0
05 11:55 W 20 G 25 10.00 Overcast BKN070 OVC090 67.5 35.2 70.3 55.4 30% 29.98 0.0
05 11:35 W 21 G 29 10.00 Mostly Cloudy and Breezy SCT070 SCT080 BKN090 69.8 35.2 28% 29.98 0.0
05 11:15 SW 20 G 24 10.00 Partly Cloudy SCT090 69.3 35.1 28% 29.97 0.0
05 10:55 SW 17 G 23 10.00 Partly Cloudy SCT090 69.4 34.7 28% 29.96 0.0
05 10:35 W 8 10.00 Fair CLR 66.9 35.8 32% 29.96 0.0
05 10:15 SW 9 10.00 Fair CLR 64.9 36.1 35% 29.96 0.0
05 09:55 W 7 10.00 Fair CLR 63.5 36.5 37% 29.96 0.0
05 09:35 W 8 10.00 Fair CLR 62.4 37.6 40% 29.96 0.0
05 09:15 W 8 10.00 Fair CLR 61.9 37.2 40% 29.97 0.0
05 08:55 W 3 10.00 Fair CLR 60.8 39.4 45% 29.97 0.0
05 08:35 Calm 10.00 Fair CLR 59.4 40.3 49% 29.97 0.0
05 08:15 W 3 10.00 Fair CLR 58.6 40.6 51% 29.97 0.0
05 07:55 W 3 10.00 Fair CLR 57 41.4 56% 29.98 0.0
05 07:35 W 6 10.00 Fair CLR 56.3 40.6 56% 29.98 0.0
Date Time (mdt) Wind (mph) Vis. (mi.) Weather Sky Cond. Air Dwpt Max. Min. Relative Humidity Wind Chill (°F) Heat Index (°F) altimeter (in) sea level (mb) 1 hr 3 hr 6 hr
6 hour
Temperature (ºF) Pressure Precipitation (in)